Airfield :
LOGIN :

Register | Disclaimer

   EN    FR    IT 

 










Legend :    VFR   Marginal VFR   IFR   Intensive IFR   Very Intensive IFR
Visi :
Ceiling :
>= 8 km
>= 3000ft
5 to 8 km
1000 to 3000 ft
1500m to 5 km
500 to 1000 ft
800 to 1500m
200 to 500 ft
< 800m
< 200 ft
Symbols :   Thunderstorms  Fog  Heavy snow  Heavy precipitations  Wind > 20 kt
SIGMETs :     Misc.  Thunderstorms  Icing  Turbulence  Mountain Waves  Volcanic Ashes







- Airport Elevation : 202 ft
- IATA code : LGW
- Download approach charts


EGKK - London Gatwick

CURRENT METAR :
  • 201650Z 06006KT 9000 RA FEW015 BKN038 03/01 Q1005

EXPIRED METARs :
  • 201620Z 04008KT 360V070 8000 RA FEW012 BKN038 03/02 Q1005
  • 201550Z 04008KT 9000 -RA FEW024 BKN037 03/02 Q1005
  • 201520Z 05008KT 030V090 9000 VCSH SCT016 BKN020 03/02 Q1005 RERA
  • 201450Z 04007KT 9000 RA SCT011 BKN016 04/02 Q1005
  • 201420Z 04007KT 9000 -RA SCT007 BKN010 04/02 Q1005

TAF TAF EGKK
Valid from the 20 at 12:00 until the 21 at 18:00 UTC


201104Z 2012/2118 05013KT 9999 BKN020
TEMPO 2012/2023 6000 SHRA BKN014
PROB30
TEMPO 2012/2016 04016G26KT 4000 +SHRA BKN008
BECMG 2022/2101 06003KT
PROB30
TEMPO 2023/2102 5000 BR BKN007
TEMPO 2102/2109 3000 BR BKN003
BECMG 2103/2106 14010KT
No reported NOTAMs for that airfield.
2 SIGMETs reported for the London FIR (EGTT) :
 
Severe mountain waves
EGTT SIGMET 03 VALID 201700/202100 EGRR
EGTT LONDON FIR SEV MTW FCST WI N5500 W00220 - N5322 W00134 - N5158 W00304 - N5149 W00510 - N5500 W00447 - N5500 W00220 FL030/120 MOV N 10KT NC=
Severe mountain waves
EGTT SIGMET 02 VALID 201300/201700 EGRR
EGTT LONDON FIR SEV MTW FCST WI N5322 W00134 - N5149 W00328 - N5130 W00504 - N5500 W00447 - N5500 W00220 - N5322 W00134 FL030/120 STNR NC=



MET'MAP, your aeronautical weather chart ! - Copyright ORBIFLY December 2007 - Disclaimer

ORBIFLY MET'MAP TEAM :

Programming & Development : Alexandra Zaïnal
Concept & Development : Baudouin d'Aumeries
Co-Development & Prog : Marc-Olivier Méhu
Technical & hardware support : Manuel Goepfert

Contact : metmap@orbifly.com




SOURCES & CREDITS :

   NOAA